KLWT/LWT METAR and TAF weather

Enter ICAO airport designator
Station Type Date Time Source
KLWT METAR 2019/06/26 19:54 UTC NOAA

KLWT 261954Z AUTO VRB03KT 10SM CLR 22/07 A2998 RMK AO2 SLP127 T02170072


Station Type Date Time Source
KLWT Decoded METAR 2019/06/26 19:54 UTC NOAA

LEWISTOWN MUNICIPAL AIRPORT , MT, United States (KLWT) 47-03N 109-27W
Jun 26, 2019 - 03:54 PM EDT / 2019.06.26 1954 UTC
Wind: Variable at 3 MPH (3 KT):0
Visibility: 10 mile(s):0
Sky conditions: clear
Temperature: 71.1 F (21.7 C)
Dew Point: 45.0 F (7.2 C)
Relative Humidity: 39%
Pressure (altimeter): 29.98 in. Hg (1015 hPa)
ob: KLWT 261954Z AUTO VRB03KT 10SM CLR 22/07 A2998 RMK AO2 SLP127 T02170072
cycle: 20

Station Type Date Time Source
KLWT TAF 2019/06/26 18:36 UTC NOAA

TAF KLWT 261734Z 2618/2718 VRB06KT P6SM VCTS SCT070CB
TEMPO 2620/2624 VRB30G50KT 4SM TSRA SCT030 OVC050CB
FM270000 12009KT P6SM VCTS SCT060CB
TEMPO 2700/2704 VRB30G50KT 4SM TSRA SCT030 OVC050CB
FM270800 VRB06KT P6SM SCT070 SCT150

Example: see airport list